Time;durP1;ratioP1;P1;durP2;ratioP2;P2;SDS_P1;SDS_P2;PMS_P1;PMS_P2;Temp;Humidity;BMP_temperature;BMP_pressure;BME280_temperature;BME280_humidity;BME280_pressure;Samples;Min_cycle;Max_cycle;Signal;HPM_P1;HPM_P2
2021/06/22 00:00:23;;;;;;;7.28;3.92;;;;;;;13.89;89.60;101397.31;5271545;28;20100;-66
2021/06/22 00:02:55;;;;;;;11.85;4.43;;;;;;;13.90;89.61;101401.59;5272497;28;20648;-66
2021/06/22 00:05:27;;;;;;;9.60;4.13;;;;;;;13.84;88.55;101405.63;5274200;28;20083;-66
2021/06/22 00:07:59;;;;;;;7.32;3.65;;;;;;;13.90;89.22;101406.03;5270919;28;20076;-66
2021/06/22 00:10:31;;;;;;;10.77;3.97;;;;;;;13.84;88.44;101400.34;5268916;28;20112;-66
2021/06/22 00:13:03;;;;;;;10.60;4.38;;;;;;;13.81;88.52;101392.72;5273924;28;20017;-66
2021/06/22 00:15:34;;;;;;;8.57;4.30;;;;;;;13.81;88.49;101403.25;5267267;28;20039;-66
2021/06/22 00:18:06;;;;;;;9.07;3.97;;;;;;;13.85;89.43;101404.66;5273932;28;20031;-66
2021/06/22 00:20:37;;;;;;;9.60;3.67;;;;;;;13.76;88.27;101418.66;5272882;28;20198;-66
2021/06/22 00:23:08;;;;;;;11.05;4.40;;;;;;;13.77;88.46;101401.88;5275058;28;20097;-66
2021/06/22 00:25:40;;;;;;;8.07;3.70;;;;;;;13.77;87.68;101401.88;5272501;28;20056;-66
2021/06/22 00:28:11;;;;;;;8.45;3.88;;;;;;;13.76;87.70;101397.59;5274287;28;20105;-66
2021/06/22 00:30:42;;;;;;;9.65;4.05;;;;;;;13.75;87.91;101400.34;5273672;28;20033;-66
2021/06/22 00:33:14;;;;;;;12.35;4.38;;;;;;;13.82;88.36;101398.81;5273230;28;20089;-66
2021/06/22 00:35:45;;;;;;;11.63;3.85;;;;;;;13.75;87.37;101400.34;5273135;28;20032;-66
2021/06/22 00:38:16;;;;;;;7.55;3.83;;;;;;;13.76;88.00;101402.84;5273735;28;20051;-66
2021/06/22 00:40:48;;;;;;;7.15;3.55;;;;;;;13.81;89.82;101408.53;5275792;28;20054;-66
2021/06/22 00:43:19;;;;;;;10.82;3.88;;;;;;;13.76;88.09;101404.66;5277440;28;20107;-66
2021/06/22 00:45:50;;;;;;;9.77;3.75;;;;;;;13.78;89.79;101394.81;5277073;28;20547;-66
2021/06/22 00:48:21;;;;;;;9.18;3.95;;;;;;;13.72;88.82;101406.72;5277844;28;20029;-66
2021/06/22 00:50:53;;;;;;;9.65;4.10;;;;;;;13.63;87.73;101413.63;5275259;28;20028;-66
2021/06/22 00:53:25;;;;;;;12.48;4.60;;;;;;;13.64;88.10;101417.13;5277590;28;20481;-67
2021/06/22 00:55:57;;;;;;;8.93;4.43;;;;;;;13.56;88.74;101420.44;5277087;28;20393;-66
2021/06/22 00:58:28;;;;;;;13.65;4.85;;;;;;;13.50;88.54;101422.75;5276672;28;20038;-66
2021/06/22 01:01:01;;;;;;;7.13;3.53;;;;;;;13.53;88.32;101425.13;5276573;28;20020;-66
2021/06/22 01:03:32;;;;;;;;;;;;;;;13.78;87.56;101434.31;5277818;28;20036;-66
2021/06/22 01:06:04;;;;;;;10.37;4.43;;;;;;;13.50;88.47;101434.13;5277785;28;20196;-66
2021/06/22 01:08:35;;;;;;;10.90;4.47;;;;;;;13.49;89.15;101432.47;5275667;28;20478;-67
2021/06/22 01:11:07;;;;;;;8.23;3.78;;;;;;;13.48;88.35;101430.78;5277912;28;20111;-66
2021/06/22 01:13:38;;;;;;;8.75;4.30;;;;;;;13.48;88.66;101429.94;5274608;28;20036;-66
2021/06/22 01:16:21;;;;;;;15.63;4.53;;;;;;;13.49;89.57;101429.00;5276332;28;20025;-66
2021/06/22 01:19:00;;;;;;;6.80;3.90;;;;;;;13.48;89.09;101430.78;5276791;28;20048;-66
2021/06/22 01:21:33;;;;;;;10.48;4.32;;;;;;;13.35;89.51;101431.03;5277546;28;20853;-66
2021/06/22 01:24:07;;;;;;;9.88;4.88;;;;;;;13.37;89.40;101428.25;5275878;28;20060;-66
2021/06/22 01:26:47;;;;;;;7.57;4.57;;;;;;;13.35;89.73;101430.19;5273846;28;20081;-66
2021/06/22 01:29:18;;;;;;;9.35;4.75;;;;;;;13.32;90.30;101426.03;5277083;28;20033;-66
2021/06/22 01:31:52;;;;;;;13.98;5.03;;;;;;;13.27;89.79;101435.31;5276652;28;20113;-66
2021/06/22 01:34:25;;;;;;;6.90;4.18;;;;;;;13.22;90.18;101434.81;5275178;28;20032;-66
2021/06/22 01:36:59;;;;;;;9.52;4.70;;;;;;;13.21;90.48;101430.53;5274037;28;20032;-66
2021/06/22 01:39:30;;;;;;;11.80;4.97;;;;;;;13.21;89.88;101422.63;5275646;28;20013;-66
2021/06/22 01:42:02;;;;;;;10.52;4.25;;;;;;;13.11;89.97;101419.97;5276719;28;20020;-66
2021/06/22 01:44:35;;;;;;;10.55;4.50;;;;;;;13.01;91.30;101425.19;5276841;28;20024;-66
2021/06/22 01:47:07;;;;;;;10.85;4.55;;;;;;;12.99;91.21;101418.38;5275128;28;20024;-66
2021/06/22 01:49:38;;;;;;;12.55;5.10;;;;;;;12.96;91.92;101422.13;5274841;28;20034;-66
2021/06/22 01:52:14;;;;;;;12.18;5.40;;;;;;;12.91;91.68;101432.19;5276429;28;20123;-66
2021/06/22 01:54:46;;;;;;;11.40;5.72;;;;;;;12.79;92.12;101426.19;5274410;28;20383;-66
2021/06/22 01:57:17;;;;;;;13.40;5.80;;;;;;;12.77;92.11;101436.00;5274914;28;20074;-66
2021/06/22 01:59:48;;;;;;;9.20;5.55;;;;;;;12.77;93.52;101427.28;5276593;28;20043;-66
2021/06/22 02:02:20;;;;;;;14.23;6.50;;;;;;;12.69;93.31;101425.31;5273120;28;20109;-66
2021/06/22 02:04:52;;;;;;;12.45;5.80;;;;;;;12.62;93.65;101414.47;5266188;28;20032;-67
2021/06/22 02:07:24;;;;;;;14.43;5.63;;;;;;;12.60;93.43;101407.66;5273086;28;20066;-66
2021/06/22 02:09:55;;;;;;;11.02;5.43;;;;;;;12.55;94.07;101410.69;5269288;28;20111;-66
2021/06/22 02:12:26;;;;;;;11.45;5.28;;;;;;;12.58;94.81;101423.59;5274301;28;20036;-68
2021/06/22 02:14:57;;;;;;;10.85;5.28;;;;;;;12.52;94.17;101424.09;5273311;28;20017;-65
2021/06/22 02:17:29;;;;;;;12.43;5.82;;;;;;;12.48;94.23;101414.78;5281232;28;20036;-65
2021/06/22 02:20:01;;;;;;;10.75;5.80;;;;;;;12.52;94.81;101421.47;5273987;28;20024;-65
2021/06/22 02:22:32;;;;;;;16.57;5.93;;;;;;;12.55;95.47;101425.63;5274037;28;20048;-65
2021/06/22 02:25:06;;;;;;;11.02;6.57;;;;;;;12.49;95.37;101426.13;5275715;28;20285;-65
2021/06/22 02:27:38;;;;;;;12.32;6.13;;;;;;;12.40;94.92;101428.56;5275449;28;20028;-66
2021/06/22 02:30:17;;;;;;;12.77;6.03;;;;;;;12.48;94.71;101437.63;5273273;28;20426;-65
2021/06/22 02:32:48;;;;;;;11.23;6.25;;;;;;;12.40;95.02;101438.25;5274937;28;20443;-65
2021/06/22 02:35:21;;;;;;;10.43;5.97;;;;;;;12.38;95.45;101435.75;5275551;28;20142;-65
2021/06/22 02:37:52;;;;;;;12.73;5.88;;;;;;;12.33;95.51;101422.16;5282596;28;20017;-67
2021/06/22 02:40:24;;;;;;;10.27;5.95;;;;;;;12.29;94.70;101418.13;5273698;28;20097;-65
2021/06/22 02:42:56;;;;;;;14.50;7.03;;;;;;;12.28;95.58;101418.25;5274370;28;20047;-65
2021/06/22 02:45:28;;;;;;;11.75;6.53;;;;;;;12.22;96.32;101422.22;5274735;28;20032;-66
2021/06/22 02:48:00;;;;;;;14.27;6.97;;;;;;;12.21;96.49;101417.94;5273588;28;20029;-66
2021/06/22 02:50:31;;;;;;;13.80;6.80;;;;;;;12.17;96.25;101406.84;5274524;28;20032;-65
2021/06/22 02:53:03;;;;;;;12.07;6.45;;;;;;;12.15;96.24;101411.38;5274463;28;20016;-65
2021/06/22 02:55:35;;;;;;;15.77;6.63;;;;;;;12.12;96.39;101405.53;5274182;28;20035;-66
2021/06/22 02:58:07;;;;;;;13.10;6.32;;;;;;;12.15;96.22;101410.53;5274574;28;20032;-66
2021/06/22 03:00:38;;;;;;;14.27;6.63;;;;;;;12.09;96.29;101408.44;5274693;28;20717;-66
2021/06/22 03:03:10;;;;;;;14.32;6.93;;;;;;;12.11;96.56;101409.13;5272257;28;20020;-65
2021/06/22 03:05:41;;;;;;;15.98;6.35;;;;;;;12.05;96.56;101407.84;5275280;28;20371;-66
2021/06/22 03:08:12;;;;;;;12.98;6.63;;;;;;;12.06;96.87;101424.44;5275285;28;20021;-66
2021/06/22 03:10:44;;;;;;;13.80;6.35;;;;;;;12.08;97.21;101423.34;5272255;28;20119;-65
2021/06/22 03:13:15;;;;;;;10.68;5.38;;;;;;;12.06;97.40;101430.53;5273951;28;20059;-66
2021/06/22 03:15:46;;;;;;;12.40;6.22;;;;;;;12.06;96.42;101429.69;5274920;28;20132;-66
2021/06/22 03:18:18;;;;;;;18.27;6.22;;;;;;;12.06;96.22;101429.69;5273450;28;20032;-65
2021/06/22 03:20:49;;;;;;;15.30;7.05;;;;;;;12.13;97.88;101429.06;5274215;28;20047;-66
2021/06/22 03:23:20;;;;;;;14.38;6.95;;;;;;;12.13;97.54;101429.06;5275012;28;20097;-66
2021/06/22 03:25:51;;;;;;;11.38;5.93;;;;;;;12.10;96.63;101420.59;5272053;28;20020;-66
2021/06/22 03:28:23;;;;;;;14.13;6.93;;;;;;;12.13;96.96;101430.88;5275082;28;20038;-65
2021/06/22 03:30:54;;;;;;;13.30;6.57;;;;;;;12.11;96.42;101427.50;5274615;28;20539;-65
2021/06/22 03:33:26;;;;;;;11.80;5.95;;;;;;;12.12;95.89;101422.16;5275818;28;20067;-65
2021/06/22 03:35:57;;;;;;;12.10;6.10;;;;;;;12.12;96.22;101426.53;5273824;28;20030;-65
2021/06/22 03:38:28;;;;;;;12.98;6.72;;;;;;;12.11;95.55;101422.25;5273571;28;20025;-66
2021/06/22 03:41:00;;;;;;;11.82;6.47;;;;;;;12.17;96.57;101432.28;5273821;28;20031;-66
2021/06/22 03:43:31;;;;;;;10.77;6.43;;;;;;;12.18;96.06;101439.19;5268956;28;20631;-65
2021/06/22 03:46:05;;;;;;;10.68;6.93;;;;;;;12.21;95.91;101452.06;5274790;28;20016;-66
2021/06/22 03:48:36;;;;;;;11.82;6.53;;;;;;;12.21;96.42;101446.81;5273061;28;20470;-66
2021/06/22 03:51:08;;;;;;;12.52;7.20;;;;;;;12.21;95.93;101444.19;5273606;28;20105;-66
2021/06/22 03:53:41;;;;;;;13.32;6.75;;;;;;;12.25;96.28;101444.78;5271861;28;20032;-66
2021/06/22 03:56:13;;;;;;;12.55;7.05;;;;;;;12.26;96.23;101449.91;5273993;28;20570;-66
2021/06/22 03:58:44;;;;;;;10.73;6.25;;;;;;;12.27;96.10;101461.22;5281684;28;20020;-66
2021/06/22 04:01:16;;;;;;;14.23;6.60;;;;;;;12.28;95.81;101463.75;5265877;28;20037;-66
2021/06/22 04:03:47;;;;;;;13.95;7.03;;;;;;;12.34;96.79;101463.22;5269856;28;20037;-65
2021/06/22 04:06:18;;;;;;;12.52;6.50;;;;;;;12.31;95.29;101460.03;5270541;28;20030;-66
2021/06/22 04:08:50;;;;;;;10.77;6.00;;;;;;;12.35;95.45;101462.28;5274601;28;20037;-65
2021/06/22 04:11:22;;;;;;;14.35;6.03;;;;;;;12.33;95.11;101456.31;5272686;28;20032;-65
2021/06/22 04:13:53;;;;;;;13.18;6.50;;;;;;;12.35;95.40;101459.66;5274688;28;20020;-65
2021/06/22 04:16:24;;;;;;;13.02;6.93;;;;;;;12.36;95.88;101468.38;5278765;28;20039;-66
2021/06/22 04:18:56;;;;;;;14.23;6.78;;;;;;;12.37;95.33;101475.28;5275292;28;20027;-66
2021/06/22 04:21:27;;;;;;;13.73;6.30;;;;;;;12.37;95.70;101475.28;5276291;28;20440;-66
2021/06/22 04:23:58;;;;;;;12.85;6.55;;;;;;;12.38;95.52;101471.69;5278988;28;20050;-66
2021/06/22 04:26:30;;;;;;;11.73;6.57;;;;;;;12.35;94.85;101472.81;5278340;28;20806;-66
2021/06/22 04:29:02;;;;;;;11.70;6.32;;;;;;;12.40;95.32;101482.94;5276816;28;20074;-66
2021/06/22 04:31:33;;;;;;;12.50;6.63;;;;;;;12.47;95.57;101475.38;5276936;28;20097;-66
2021/06/22 04:34:05;;;;;;;9.80;6.32;;;;;;;12.45;95.39;101482.53;5278158;28;20016;-66
2021/06/22 04:36:36;;;;;;;9.10;6.53;;;;;;;12.54;95.88;101492.28;5277075;28;20028;-66
2021/06/22 04:39:07;;;;;;;10.23;6.07;;;;;;;12.55;95.47;101493.97;5277381;28;20029;-66
2021/06/22 04:41:39;;;;;;;12.10;6.07;;;;;;;12.60;94.56;101491.78;5277419;28;20038;-65
2021/06/22 04:44:10;;;;;;;11.32;6.00;;;;;;;12.62;95.70;101492.50;5277831;28;20339;-65
2021/06/22 04:46:42;;;;;;;10.13;5.85;;;;;;;12.68;94.51;101499.03;5274890;28;21146;-66
2021/06/22 04:49:13;;;;;;;10.00;6.20;;;;;;;12.76;95.18;101496.59;5273187;28;20033;-66
2021/06/22 04:51:44;;;;;;;13.65;6.30;;;;;;;12.80;95.41;101498.84;5275423;28;20028;-65
2021/06/22 04:54:17;;;;;;;11.00;6.18;;;;;;;12.82;94.45;101498.72;5276012;28;20028;-66
2021/06/22 04:56:48;;;;;;;8.77;6.30;;;;;;;12.84;93.83;101502.91;5275378;28;20037;-66
2021/06/22 04:59:19;;;;;;;10.27;6.13;;;;;;;12.78;93.93;101495.50;5275592;28;20621;-66
2021/06/22 05:01:51;;;;;;;11.07;6.32;;;;;;;12.89;93.79;101508.59;5274244;28;20024;-66
2021/06/22 05:04:22;;;;;;;12.20;6.20;;;;;;;12.91;94.03;101506.66;5275514;28;20604;-66
2021/06/22 05:06:54;;;;;;;11.43;5.97;;;;;;;12.94;93.41;101515.25;5277287;28;20109;-65
2021/06/22 05:09:25;;;;;;;10.60;6.22;;;;;;;12.96;94.87;101510.72;5278439;28;20017;-66
2021/06/22 05:11:57;;;;;;;13.23;5.75;;;;;;;12.94;93.30;101504.75;5276271;28;20024;-65
2021/06/22 05:14:28;;;;;;;12.10;5.53;;;;;;;12.99;94.02;101515.69;5275053;28;20441;-66
2021/06/22 05:16:59;;;;;;;10.88;5.60;;;;;;;12.99;92.65;101511.28;5277820;28;20025;-66
2021/06/22 05:19:31;;;;;;;9.55;5.55;;;;;;;13.03;92.87;101514.47;5277194;28;20048;-66
2021/06/22 05:22:02;;;;;;;9.50;5.70;;;;;;;13.05;93.34;101523.09;5276377;28;20394;-66
2021/06/22 05:24:34;;;;;;;14.30;6.00;;;;;;;13.07;93.68;101522.00;5275667;28;20032;-68
2021/06/22 05:27:05;;;;;;;10.85;5.90;;;;;;;13.14;93.58;101530.19;5275286;28;20107;-66
2021/06/22 05:29:37;;;;;;;12.23;6.45;;;;;;;13.10;92.37;101532.25;5272469;28;20032;-66
2021/06/22 05:32:08;;;;;;;12.85;6.32;;;;;;;13.14;92.95;101527.56;5283916;28;20036;-66
2021/06/22 05:34:40;;;;;;;9.73;6.07;;;;;;;13.18;93.78;101523.69;5282112;28;20032;-66
2021/06/22 05:37:11;;;;;;;11.95;6.55;;;;;;;13.19;93.84;101519.31;5277677;28;20035;-67
2021/06/22 05:39:42;;;;;;;10.20;6.10;;;;;;;13.17;93.78;101527.31;5274853;28;20111;-65
2021/06/22 05:42:15;;;;;;;10.75;6.18;;;;;;;13.19;93.99;101528.03;5277076;28;20028;-66
2021/06/22 05:44:46;;;;;;;13.55;6.97;;;;;;;13.22;94.72;101525.13;5275039;28;20114;-66
2021/06/22 05:47:17;;;;;;;12.40;6.57;;;;;;;13.22;94.61;101519.88;5274686;28;20560;-66
2021/06/22 05:49:49;;;;;;;13.73;6.60;;;;;;;13.24;94.34;101525.84;5273427;28;20082;-66
2021/06/22 05:52:20;;;;;;;15.38;6.13;;;;;;;13.23;94.52;101526.81;5271692;28;20042;-66
2021/06/22 05:54:51;;;;;;;10.25;6.43;;;;;;;13.24;94.15;101530.28;5273604;28;20024;-66
2021/06/22 05:57:23;;;;;;;12.73;6.85;;;;;;;13.24;94.49;101536.38;5274947;28;20032;-66
2021/06/22 05:59:54;;;;;;;12.25;6.68;;;;;;;13.29;94.61;101542.06;5275378;28;20131;-66
2021/06/22 06:02:25;;;;;;;12.98;6.88;;;;;;;13.28;94.11;101539.59;5273025;28;20112;-66
2021/06/22 06:04:56;;;;;;;10.75;7.13;;;;;;;13.37;94.25;101538.78;5257895;28;20024;-66
2021/06/22 06:07:29;;;;;;;10.30;6.47;;;;;;;13.38;94.20;101536.03;5272501;28;20052;-66
2021/06/22 06:10:01;;;;;;;;;;;;;;;13.64;93.54;101543.50;5272727;28;20032;-66
2021/06/22 06:12:33;;;;;;;9.70;6.45;;;;;;;13.45;94.26;101551.28;5269000;28;20349;-66
2021/06/22 06:15:06;;;;;;;12.07;7.28;;;;;;;13.45;94.30;101551.28;5271145;28;20028;-66
2021/06/22 06:17:38;;;;;;;10.82;6.78;;;;;;;13.55;93.54;101544.28;5273024;28;20059;-67
2021/06/22 06:20:11;;;;;;;12.25;6.50;;;;;;;13.53;93.27;101549.69;5275039;28;20032;-66
2021/06/22 06:22:46;;;;;;;12.20;6.68;;;;;;;13.55;92.67;101554.81;5271831;28;20036;-67
2021/06/22 06:25:17;;;;;;;11.50;6.22;;;;;;;13.56;92.52;101552.06;5281559;28;20055;-67
2021/06/22 06:27:53;;;;;;;11.88;6.45;;;;;;;13.67;92.95;101555.53;5275105;28;20029;-66
2021/06/22 06:30:28;;;;;;;10.65;5.80;;;;;;;13.58;90.99;101554.56;5272259;28;20047;-68
2021/06/22 06:32:59;;;;;;;13.15;6.18;;;;;;;13.69;92.37;101557.09;5275348;28;20033;-67
2021/06/22 06:35:30;;;;;;;14.75;6.40;;;;;;;13.70;92.21;101561.38;5274436;28;20150;-67
2021/06/22 06:38:02;;;;;;;10.55;6.68;;;;;;;13.77;91.37;101557.25;5271894;28;20025;-67
2021/06/22 06:40:35;;;;;;;11.60;6.00;;;;;;;13.85;91.67;101553.94;5266894;28;20040;-67
2021/06/22 06:43:06;;;;;;;;;;;;;;;14.05;90.63;101554.84;5268876;28;20027;-67
2021/06/22 06:45:37;;;;;;;9.20;6.07;;;;;;;13.87;88.64;101562.56;5273467;28;19916;-67
2021/06/22 06:48:09;;;;;;;17.08;6.70;;;;;;;13.92;90.86;101560.34;5272564;28;20020;-67
2021/06/22 06:50:40;;;;;;;15.77;6.65;;;;;;;13.99;90.07;101566.75;5271208;28;20214;-67
2021/06/22 06:53:11;;;;;;;14.05;6.60;;;;;;;13.96;88.81;101568.81;5273311;28;20467;-66
2021/06/22 06:55:45;;;;;;;10.68;6.38;;;;;;;13.96;89.13;101567.03;5273145;28;20509;-67
2021/06/22 06:58:16;;;;;;;10.88;6.25;;;;;;;13.98;89.32;101559.81;5273557;28;20121;-67
2021/06/22 07:00:47;;;;;;;16.08;6.90;;;;;;;14.03;89.58;101562.88;5276387;28;20348;-67
2021/06/22 07:03:19;;;;;;;12.68;8.13;;;;;;;13.99;88.97;101566.75;5268686;28;20500;-67
2021/06/22 07:05:50;;;;;;;13.20;8.57;;;;;;;13.98;87.84;101564.25;5271182;28;20033;-67
2021/06/22 07:08:21;;;;;;;12.52;9.10;;;;;;;13.94;88.40;101565.47;5269793;28;20209;-67
2021/06/22 07:10:53;;;;;;;15.02;8.82;;;;;;;13.95;89.40;101572.44;5271918;28;20028;-67
2021/06/22 07:13:24;;;;;;;14.07;8.40;;;;;;;13.95;88.40;101565.34;5272926;28;20024;-66
2021/06/22 07:15:55;;;;;;;11.95;8.77;;;;;;;14.02;90.69;101570.94;5272710;28;20038;-68
2021/06/22 07:18:29;;;;;;;13.85;9.07;;;;;;;14.06;89.86;101562.63;5274229;28;20033;-68
2021/06/22 07:21:01;;;;;;;14.13;8.85;;;;;;;14.07;89.61;101558.19;5273370;28;20460;-68
2021/06/22 07:23:32;;;;;;;17.23;9.20;;;;;;;14.08;89.16;101562.47;5275011;28;20036;-66
2021/06/22 07:26:03;;;;;;;17.92;9.55;;;;;;;14.08;88.77;101565.09;5269094;28;20528;-65
2021/06/22 07:28:35;;;;;;;16.27;9.65;;;;;;;14.09;87.92;101567.63;5273430;28;20078;-65
2021/06/22 07:31:11;;;;;;;14.82;9.60;;;;;;;14.14;87.76;101566.38;5271733;28;21197;-66
2021/06/22 07:33:43;;;;;;;15.65;10.00;;;;;;;14.17;88.20;101561.69;5271401;28;20024;-68
2021/06/22 07:36:14;;;;;;;15.10;10.32;;;;;;;14.34;89.04;101571.53;5274042;28;20162;-68
2021/06/22 07:38:45;;;;;;;18.63;10.60;;;;;;;14.43;86.69;101574.31;5274831;28;20028;-68
2021/06/22 07:41:17;;;;;;;16.23;11.07;;;;;;;14.47;86.17;101570.44;5265588;28;20040;-66
2021/06/22 07:43:48;;;;;;;15.95;10.55;;;;;;;14.59;85.35;101585.19;5271745;28;20039;-66
2021/06/22 07:46:19;;;;;;;16.23;11.05;;;;;;;14.61;85.77;101585.88;5274133;28;20035;-65
2021/06/22 07:48:51;;;;;;;14.18;9.70;;;;;;;14.79;86.09;101589.50;5273410;28;20036;-66
2021/06/22 07:51:22;;;;;;;17.83;11.02;;;;;;;14.91;85.25;101576.16;5273396;28;20044;-66
2021/06/22 07:53:53;;;;;;;15.38;9.88;;;;;;;14.91;84.14;101587.53;5274593;28;20016;-66
2021/06/22 07:56:25;;;;;;;18.95;10.55;;;;;;;15.04;83.22;101577.53;5272898;28;20039;-68
2021/06/22 07:58:56;;;;;;;14.63;11.30;;;;;;;15.23;82.10;101584.59;5271182;28;20017;-66
2021/06/22 08:01:27;;;;;;;11.85;10.05;;;;;;;15.27;81.96;101585.97;5271789;28;20111;-68
2021/06/22 08:03:58;;;;;;;16.27;10.48;;;;;;;15.42;84.28;101589.00;5271626;28;20036;-68
2021/06/22 08:06:31;;;;;;;17.58;10.43;;;;;;;15.48;81.54;101592.84;5272350;28;20036;-68
2021/06/22 08:09:03;;;;;;;12.43;9.63;;;;;;;15.53;81.97;101599.38;5271702;28;20027;-68
2021/06/22 08:11:35;;;;;;;12.90;9.00;;;;;;;15.55;80.89;101601.88;5273787;28;20036;-68
2021/06/22 08:14:06;;;;;;;16.15;10.07;;;;;;;15.70;81.27;101596.97;5273486;28;20017;-68
2021/06/22 08:16:39;;;;;;;18.95;10.15;;;;;;;15.56;80.61;101596.44;5272447;28;20063;-69
2021/06/22 08:19:11;;;;;;;15.38;9.73;;;;;;;15.62;80.00;101604.78;5273351;28;20023;-66
2021/06/22 08:21:42;;;;;;;12.30;9.38;;;;;;;15.57;80.45;101603.41;5273990;28;20048;-66
2021/06/22 08:24:13;;;;;;;14.48;10.10;;;;;;;15.51;78.88;101603.13;5272634;28;20542;-66
2021/06/22 08:26:45;;;;;;;12.70;9.52;;;;;;;15.53;79.83;101594.09;5269816;28;20029;-66
2021/06/22 08:29:16;;;;;;;16.13;10.13;;;;;;;15.53;79.46;101593.25;5268835;28;20111;-67
2021/06/22 08:31:47;;;;;;;14.98;9.50;;;;;;;15.62;80.26;101592.41;5268106;28;20529;-67
2021/06/22 08:34:18;;;;;;;15.15;10.10;;;;;;;15.78;81.27;101600.56;5272223;28;20500;-68
2021/06/22 08:36:50;;;;;;;13.38;10.05;;;;;;;15.86;80.00;101593.72;5270183;28;20053;-68
2021/06/22 08:39:21;;;;;;;17.38;11.02;;;;;;;15.85;78.29;101594.69;5269814;28;20036;-67
2021/06/22 08:41:53;;;;;;;14.85;10.63;;;;;;;15.90;76.81;101595.91;5271212;28;20025;-68
2021/06/22 08:44:25;;;;;;;15.23;10.10;;;;;;;15.97;76.12;101601.44;5269145;28;20386;-69
2021/06/22 08:46:57;;;;;;;13.77;9.57;;;;;;;15.96;75.75;101597.16;5278094;28;20073;-67
2021/06/22 08:49:31;;;;;;;13.75;10.18;;;;;;;16.08;78.04;101590.69;5271028;28;20435;-68
2021/06/22 08:52:03;;;;;;;15.68;11.57;;;;;;;16.03;77.59;101587.66;5270126;28;20028;-68
2021/06/22 08:54:34;;;;;;;15.88;10.32;;;;;;;16.18;76.09;101586.19;5271710;28;20382;-69
2021/06/22 08:57:06;;;;;;;11.50;10.18;;;;;;;16.12;74.02;101588.56;5270420;28;20047;-68
2021/06/22 08:59:41;;;;;;;14.32;11.25;;;;;;;16.12;74.35;101589.41;5272696;28;20020;-68
2021/06/22 09:02:14;;;;;;;15.15;11.02;;;;;;;16.24;76.40;101590.03;5273177;28;20028;-68
2021/06/22 09:04:45;;;;;;;16.48;10.77;;;;;;;16.38;76.42;101586.88;5275874;28;20060;-68
2021/06/22 09:07:48;;;;;;;15.30;11.00;;;;;;;16.66;76.36;101584.97;5274139;28;20052;-68
2021/06/22 09:10:30;;;;;;;14.25;11.57;;;;;;;16.80;75.64;101578.38;5273514;28;20036;-68
2021/06/22 09:13:15;;;;;;;20.55;12.35;;;;;;;16.90;75.74;101581.75;5271163;28;20045;-68
2021/06/22 09:15:49;;;;;;;15.05;11.98;;;;;;;16.74;74.02;101582.47;5275321;28;20535;-68
2021/06/22 09:18:27;;;;;;;19.38;13.43;;;;;;;16.72;73.06;101587.03;5263147;28;20033;-69
2021/06/22 09:21:04;;;;;;;20.05;13.00;;;;;;;16.62;72.17;101588.09;5268808;28;20056;-67
2021/06/22 09:23:38;;;;;;;16.73;12.80;;;;;;;16.65;72.70;101582.50;5272873;28;20078;-68
2021/06/22 09:26:10;;;;;;;14.07;11.95;;;;;;;16.66;71.47;101577.03;5273475;28;20409;-68
2021/06/22 09:28:42;;;;;;;15.67;12.40;;;;;;;16.75;72.08;101578.81;5270883;28;20078;-68
2021/06/22 09:31:16;;;;;;;18.70;13.33;;;;;;;16.73;71.59;101583.44;5273541;28;20029;-68
2021/06/22 09:33:51;;;;;;;15.27;13.65;;;;;;;16.60;69.90;101585.59;5271657;28;20417;-67
2021/06/22 09:36:28;;;;;;;17.33;12.95;;;;;;;16.58;70.27;101589.38;5268670;28;20055;-68
2021/06/22 09:39:06;;;;;;;16.42;13.85;;;;;;;16.56;69.12;101586.91;5273338;28;20600;-68
2021/06/22 09:41:40;;;;;;;17.02;13.57;;;;;;;16.46;69.67;101599.34;5275369;28;20038;-67
2021/06/22 09:44:16;;;;;;;18.48;13.88;;;;;;;16.44;69.51;101601.28;5272415;28;20113;-68
2021/06/22 09:46:55;;;;;;;13.70;12.27;;;;;;;16.44;69.22;101582.78;5273165;28;20039;-68
2021/06/22 09:49:29;;;;;;;14.38;12.57;;;;;;;16.46;68.98;101580.84;5274906;28;20048;-68
2021/06/22 09:52:05;;;;;;;14.55;12.23;;;;;;;16.47;68.65;101591.25;5274034;28;20021;-67
2021/06/22 09:54:53;;;;;;;17.55;12.90;;;;;;;16.53;69.09;101588.00;5275101;28;20062;-68
2021/06/22 09:57:27;;;;;;;14.00;12.48;;;;;;;16.42;68.64;101590.88;5253357;28;20052;-68
2021/06/22 10:00:06;;;;;;;18.20;13.60;;;;;;;16.53;68.82;101590.66;5268153;28;20155;-68
2021/06/22 10:02:55;;;;;;;17.20;13.48;;;;;;;16.61;69.42;101591.72;5270877;28;20488;-68
2021/06/22 10:05:26;;;;;;;15.02;13.25;;;;;;;16.51;67.54;101587.31;5270656;28;20398;-68
2021/06/22 10:07:59;;;;;;;17.15;14.05;;;;;;;16.56;68.22;101588.72;5273471;28;20044;-68
2021/06/22 10:10:38;;;;;;;17.98;13.57;;;;;;;16.66;68.01;101582.34;5276037;28;20512;-68
2021/06/22 10:13:09;;;;;;;16.02;13.93;;;;;;;16.69;68.27;101578.56;5269477;28;20422;-68
2021/06/22 10:15:41;;;;;;;16.92;13.48;;;;;;;16.76;66.31;101585.78;5274549;28;20036;-68
2021/06/22 10:18:12;;;;;;;15.60;13.75;;;;;;;16.79;67.24;101584.66;5275494;28;20059;-68
2021/06/22 10:20:46;;;;;;;16.20;13.93;;;;;;;16.86;68.07;101582.19;5276513;28;20045;-68
2021/06/22 10:23:17;;;;;;;14.60;13.10;;;;;;;17.06;67.59;101585.53;5267089;28;20067;-68
2021/06/22 10:25:49;;;;;;;15.50;13.90;;;;;;;17.13;66.64;101587.41;5268805;28;20029;-68
2021/06/22 10:28:21;;;;;;;18.40;14.18;;;;;;;17.12;67.01;101580.44;5265630;28;20115;-68
2021/06/22 10:30:52;;;;;;;16.23;14.27;;;;;;;17.23;67.13;101588.09;5266313;28;20393;-68
2021/06/22 10:33:23;;;;;;;17.42;14.40;;;;;;;17.36;67.15;101586.88;5264734;28;20028;-68
2021/06/22 10:35:55;;;;;;;16.80;12.50;;;;;;;17.35;66.27;101591.34;5273896;28;20410;-68
2021/06/22 10:38:40;;;;;;;17.20;14.23;;;;;;;17.58;67.75;101589.00;5273700;28;20418;-69
2021/06/22 10:41:12;;;;;;;16.67;14.73;;;;;;;17.77;68.29;101582.66;5271045;28;20480;-68
2021/06/22 10:43:45;;;;;;;18.83;14.23;;;;;;;17.88;66.27;101584.16;5269379;28;20020;-68
2021/06/22 10:46:17;;;;;;;;;;;;;;;18.14;66.88;101576.13;5274897;28;20025;-68
2021/06/22 10:48:52;;;;;;;15.43;13.55;;;;;;;17.91;63.42;101575.91;5271970;28;19924;-68
2021/06/22 10:51:38;;;;;;;15.18;13.57;;;;;;;18.12;66.12;101584.25;5274308;28;20029;-68
2021/06/22 10:54:13;;;;;;;17.15;14.15;;;;;;;18.01;65.04;101586.38;5269181;28;20052;-68
2021/06/22 10:56:45;;;;;;;15.30;13.80;;;;;;;17.98;64.74;101576.91;5264006;28;20082;-68
2021/06/22 10:59:19;;;;;;;15.18;13.68;;;;;;;18.10;65.25;101588.88;5269341;28;20025;-68
2021/06/22 11:01:54;;;;;;;14.80;13.25;;;;;;;18.17;64.23;101592.56;5273615;28;20107;-67
2021/06/22 11:04:25;;;;;;;15.77;12.82;;;;;;;18.16;61.74;101588.25;5271333;28;20081;-68
2021/06/22 11:07:05;;;;;;;15.27;13.35;;;;;;;18.38;63.71;101586.00;5268900;28;20514;-68
2021/06/22 11:09:37;;;;;;;16.35;14.05;;;;;;;18.43;63.64;101588.97;5274641;28;20028;-68
2021/06/22 11:12:21;;;;;;;14.57;13.10;;;;;;;18.64;61.28;101584.03;5268505;28;20389;-68
2021/06/22 11:14:58;;;;;;;15.00;13.50;;;;;;;18.67;63.83;101590.81;5265147;28;20162;-68
2021/06/22 11:17:42;;;;;;;18.30;14.30;;;;;;;18.67;63.31;101583.69;5259293;28;20459;-69
2021/06/22 11:20:15;;;;;;;15.20;13.23;;;;;;;18.57;62.93;101595.47;5272785;28;20066;-68
2021/06/22 11:23:05;;;;;;;17.08;15.10;;;;;;;18.79;64.33;101592.19;5274916;28;20026;-68
2021/06/22 11:25:51;;;;;;;16.55;13.70;;;;;;;18.94;61.88;101589.69;5273242;28;20481;-68
2021/06/22 11:28:24;;;;;;;18.50;14.77;;;;;;;18.96;62.09;101587.72;5271609;28;20043;-69
2021/06/22 11:30:55;;;;;;;17.92;14.13;;;;;;;18.87;60.22;101583.41;5270445;28;20039;-69
2021/06/22 11:33:44;;;;;;;16.23;13.13;;;;;;;19.16;59.81;101583.69;5272659;28;20580;-68
2021/06/22 11:36:15;;;;;;;16.02;14.27;;;;;;;18.90;60.25;101580.41;5268435;28;20024;-68
2021/06/22 11:39:19;;;;;;;18.27;13.73;;;;;;;19.19;61.99;101591.31;5271217;28;20025;-68
2021/06/22 11:42:12;;;;;;;15.63;13.95;;;;;;;19.29;60.10;101577.88;5270645;28;20020;-68